sensor_id;sensor_type;location;lat;lon;timestamp;temperature;humidity
63407;SHT31;49543;45.892;10.838;2023-12-20T07:12:20;6.00;80.09
63407;SHT31;49543;45.892;10.838;2023-12-20T07:14:45;5.98;80.16
63407;SHT31;49543;45.892;10.838;2023-12-20T18:12:51;6.07;79.45
63407;SHT31;49543;45.892;10.838;2023-12-20T18:15:17;6.01;79.98
63407;SHT31;49543;45.892;10.838;2023-12-20T18:17:43;5.95;80.15
63407;SHT31;49543;45.892;10.838;2023-12-20T18:20:09;5.91;80.37
63407;SHT31;49543;45.892;10.838;2023-12-20T18:22:34;5.89;81.03
63407;SHT31;49543;45.892;10.838;2023-12-20T18:25:00;5.87;81.15
63407;SHT31;49543;45.892;10.838;2023-12-20T18:27:26;5.87;81.05
63407;SHT31;49543;45.892;10.838;2023-12-20T18:29:52;5.81;81.13
63407;SHT31;49543;45.892;10.838;2023-12-20T18:32:17;5.80;81.12
63407;SHT31;49543;45.892;10.838;2023-12-20T18:34:43;5.77;81.05
63407;SHT31;49543;45.892;10.838;2023-12-20T18:37:08;5.74;81.15
63407;SHT31;49543;45.892;10.838;2023-12-20T18:39:38;5.73;81.26
63407;SHT31;49543;45.892;10.838;2023-12-20T18:42:07;5.70;81.35
63407;SHT31;49543;45.892;10.838;2023-12-20T18:44:33;5.69;81.42
63407;SHT31;49543;45.892;10.838;2023-12-20T18:46:58;5.73;81.26
63407;SHT31;49543;45.892;10.838;2023-12-20T18:49:24;5.74;81.16
63407;SHT31;49543;45.892;10.838;2023-12-20T18:51:50;5.77;81.16
63407;SHT31;49543;45.892;10.838;2023-12-20T18:54:15;5.75;81.29
63407;SHT31;49543;45.892;10.838;2023-12-20T18:56:42;5.78;81.14
63407;SHT31;49543;45.892;10.838;2023-12-20T18:59:08;5.77;81.24
63407;SHT31;49543;45.892;10.838;2023-12-20T19:01:34;5.75;80.99
63407;SHT31;49543;45.892;10.838;2023-12-20T19:03:59;5.73;81.05
63407;SHT31;49543;45.892;10.838;2023-12-20T19:06:25;5.75;81.19
63407;SHT31;49543;45.892;10.838;2023-12-20T19:08:51;5.78;81.17
63407;SHT31;49543;45.892;10.838;2023-12-20T19:11:18;5.77;81.19
63407;SHT31;49543;45.892;10.838;2023-12-20T19:13:43;5.75;81.04
63407;SHT31;49543;45.892;10.838;2023-12-20T19:16:09;5.77;81.25
63407;SHT31;49543;45.892;10.838;2023-12-20T19:18:34;5.78;81.31
63407;SHT31;49543;45.892;10.838;2023-12-20T19:21:00;5.80;81.23
63407;SHT31;49543;45.892;10.838;2023-12-20T19:23:25;5.78;81.06
63407;SHT31;49543;45.892;10.838;2023-12-20T19:25:53;5.77;81.47
63407;SHT31;49543;45.892;10.838;2023-12-20T19:28:19;5.78;81.85
63407;SHT31;49543;45.892;10.838;2023-12-20T19:30:45;5.80;81.77
63407;SHT31;49543;45.892;10.838;2023-12-20T19:33:10;5.80;81.66
63407;SHT31;49543;45.892;10.838;2023-12-20T19:35:36;5.78;81.62
63407;SHT31;49543;45.892;10.838;2023-12-20T19:38:01;5.77;81.29
63407;SHT31;49543;45.892;10.838;2023-12-20T19:40:26;5.75;81.32
63407;SHT31;49543;45.892;10.838;2023-12-20T19:42:52;5.77;81.53
63407;SHT31;49543;45.892;10.838;2023-12-20T19:45:17;5.75;81.46
63407;SHT31;49543;45.892;10.838;2023-12-20T19:47:49;5.73;81.32
63407;SHT31;49543;45.892;10.838;2023-12-20T19:50:14;5.73;81.37
63407;SHT31;49543;45.892;10.838;2023-12-20T19:52:40;5.75;81.44
63407;SHT31;49543;45.892;10.838;2023-12-20T19:55:05;5.70;81.43
63407;SHT31;49543;45.892;10.838;2023-12-20T19:57:31;5.71;81.71
63407;SHT31;49543;45.892;10.838;2023-12-20T19:59:56;5.71;81.61
63407;SHT31;49543;45.892;10.838;2023-12-20T20:02:22;5.71;81.29
63407;SHT31;49543;45.892;10.838;2023-12-20T20:04:47;5.71;80.27
63407;SHT31;49543;45.892;10.838;2023-12-20T20:07:13;5.71;80.39
63407;SHT31;49543;45.892;10.838;2023-12-20T20:09:40;5.71;80.52
63407;SHT31;49543;45.892;10.838;2023-12-20T20:12:05;5.69;80.78
63407;SHT31;49543;45.892;10.838;2023-12-20T20:14:31;5.71;80.96
63407;SHT31;49543;45.892;10.838;2023-12-20T20:16:58;5.73;80.93
63407;SHT31;49543;45.892;10.838;2023-12-20T20:19:26;5.71;80.86
63407;SHT31;49543;45.892;10.838;2023-12-20T20:21:51;5.69;80.75
63407;SHT31;49543;45.892;10.838;2023-12-20T20:24:17;5.67;80.81
63407;SHT31;49543;45.892;10.838;2023-12-20T20:26:42;5.66;80.92
63407;SHT31;49543;45.892;10.838;2023-12-20T20:29:07;5.67;81.07
63407;SHT31;49543;45.892;10.838;2023-12-20T20:31:33;5.64;81.14
63407;SHT31;49543;45.892;10.838;2023-12-20T20:33:59;5.60;81.25
63407;SHT31;49543;45.892;10.838;2023-12-20T20:36:25;5.57;81.21
63407;SHT31;49543;45.892;10.838;2023-12-20T20:38:50;5.50;81.52
63407;SHT31;49543;45.892;10.838;2023-12-20T20:41:16;5.47;81.43
63407;SHT31;49543;45.892;10.838;2023-12-20T20:43:41;5.46;81.95
63407;SHT31;49543;45.892;10.838;2023-12-20T20:46:06;5.39;82.04
63407;SHT31;49543;45.892;10.838;2023-12-20T20:48:32;5.42;81.97
63407;SHT31;49543;45.892;10.838;2023-12-20T20:50:57;5.38;82.04
63407;SHT31;49543;45.892;10.838;2023-12-20T20:53:23;5.38;82.16
63407;SHT31;49543;45.892;10.838;2023-12-20T20:55:49;5.38;82.26
63407;SHT31;49543;45.892;10.838;2023-12-20T20:58:14;5.38;82.18
63407;SHT31;49543;45.892;10.838;2023-12-20T21:00:39;5.38;82.24
63407;SHT31;49543;45.892;10.838;2023-12-20T21:03:05;5.39;82.20
63407;SHT31;49543;45.892;10.838;2023-12-20T21:05:30;5.40;82.09
63407;SHT31;49543;45.892;10.838;2023-12-20T21:07:55;5.38;81.96
63407;SHT31;49543;45.892;10.838;2023-12-20T21:10:22;5.40;81.99
63407;SHT31;49543;45.892;10.838;2023-12-20T21:12:47;5.39;82.08
63407;SHT31;49543;45.892;10.838;2023-12-20T21:15:13;5.36;82.23
63407;SHT31;49543;45.892;10.838;2023-12-20T21:17:39;5.33;82.21
63407;SHT31;49543;45.892;10.838;2023-12-20T21:20:09;5.38;82.27
63407;SHT31;49543;45.892;10.838;2023-12-20T21:22:35;5.35;82.01
63407;SHT31;49543;45.892;10.838;2023-12-20T21:25:00;5.32;82.14
63407;SHT31;49543;45.892;10.838;2023-12-20T21:27:25;5.31;82.13
63407;SHT31;49543;45.892;10.838;2023-12-20T21:29:51;5.29;81.95
63407;SHT31;49543;45.892;10.838;2023-12-20T21:32:16;5.31;82.02
63407;SHT31;49543;45.892;10.838;2023-12-20T21:34:42;5.29;82.16
63407;SHT31;49543;45.892;10.838;2023-12-20T21:37:07;5.29;82.22
63407;SHT31;49543;45.892;10.838;2023-12-20T21:39:33;5.28;82.03
63407;SHT31;49543;45.892;10.838;2023-12-20T21:41:58;5.28;82.13
63407;SHT31;49543;45.892;10.838;2023-12-20T21:44:23;5.26;82.21
63407;SHT31;49543;45.892;10.838;2023-12-20T21:46:49;5.26;81.89
63407;SHT31;49543;45.892;10.838;2023-12-20T21:49:14;5.24;82.03
63407;SHT31;49543;45.892;10.838;2023-12-20T21:51:40;5.24;82.66
63407;SHT31;49543;45.892;10.838;2023-12-20T21:54:07;5.21;82.90
63407;SHT31;49543;45.892;10.838;2023-12-20T21:56:32;5.22;82.72
63407;SHT31;49543;45.892;10.838;2023-12-20T21:58:59;5.19;82.67
63407;SHT31;49543;45.892;10.838;2023-12-20T22:01:24;5.21;82.77
63407;SHT31;49543;45.892;10.838;2023-12-20T22:03:50;5.21;82.71
63407;SHT31;49543;45.892;10.838;2023-12-20T22:06:15;5.24;82.81
63407;SHT31;49543;45.892;10.838;2023-12-20T22:08:40;5.24;82.67
63407;SHT31;49543;45.892;10.838;2023-12-20T22:11:06;5.29;82.71
63407;SHT31;49543;45.892;10.838;2023-12-20T22:13:31;5.28;82.71
63407;SHT31;49543;45.892;10.838;2023-12-20T22:15:57;5.29;82.74
63407;SHT31;49543;45.892;10.838;2023-12-20T22:18:23;5.32;82.85
63407;SHT31;49543;45.892;10.838;2023-12-20T22:20:48;5.35;82.97
63407;SHT31;49543;45.892;10.838;2023-12-20T22:23:14;5.36;82.87
63407;SHT31;49543;45.892;10.838;2023-12-20T22:25:41;5.36;82.69
63407;SHT31;49543;45.892;10.838;2023-12-20T22:28:06;5.44;82.56
63407;SHT31;49543;45.892;10.838;2023-12-20T22:30:31;5.43;82.31
63407;SHT31;49543;45.892;10.838;2023-12-20T22:32:57;5.44;82.51
63407;SHT31;49543;45.892;10.838;2023-12-20T22:35:22;5.46;82.44
63407;SHT31;49543;45.892;10.838;2023-12-20T22:37:48;5.44;82.04
63407;SHT31;49543;45.892;10.838;2023-12-20T22:40:13;5.44;81.90
63407;SHT31;49543;45.892;10.838;2023-12-20T22:42:38;5.49;81.72
63407;SHT31;49543;45.892;10.838;2023-12-20T22:45:04;5.49;81.57
63407;SHT31;49543;45.892;10.838;2023-12-20T22:47:29;5.46;81.23
63407;SHT31;49543;45.892;10.838;2023-12-20T22:49:54;5.47;81.01
63407;SHT31;49543;45.892;10.838;2023-12-20T22:52:20;5.49;81.00
63407;SHT31;49543;45.892;10.838;2023-12-20T22:54:49;5.49;81.21
63407;SHT31;49543;45.892;10.838;2023-12-20T22:57:15;5.52;81.39
63407;SHT31;49543;45.892;10.838;2023-12-20T22:59:40;5.49;81.61
63407;SHT31;49543;45.892;10.838;2023-12-20T23:02:06;5.50;81.74
63407;SHT31;49543;45.892;10.838;2023-12-20T23:04:31;5.53;81.81
63407;SHT31;49543;45.892;10.838;2023-12-20T23:06:56;5.54;81.82
63407;SHT31;49543;45.892;10.838;2023-12-20T23:09:22;5.53;81.68
63407;SHT31;49543;45.892;10.838;2023-12-20T23:11:47;5.53;81.77
63407;SHT31;49543;45.892;10.838;2023-12-20T23:14:12;5.52;81.61
63407;SHT31;49543;45.892;10.838;2023-12-20T23:16:38;5.50;81.68
